sensor_id;sensor_type;location;lat;lon;timestamp;temperature;humidity
20416;DHT22;10367;52.202;5.996;2023-01-13T00:00:35;9.00;99.90
20416;DHT22;10367;52.202;5.996;2023-01-13T00:03:06;9.00;99.90
20416;DHT22;10367;52.202;5.996;2023-01-13T00:05:36;9.10;99.90
20416;DHT22;10367;52.202;5.996;2023-01-13T00:08:05;9.00;99.90
20416;DHT22;10367;52.202;5.996;2023-01-13T00:10:34;9.00;99.90
20416;DHT22;10367;52.202;5.996;2023-01-13T00:13:04;8.90;99.90
20416;DHT22;10367;52.202;5.996;2023-01-13T00:15:33;9.00;99.90
20416;DHT22;10367;52.202;5.996;2023-01-13T00:18:01;9.00;99.90
20416;DHT22;10367;52.202;5.996;2023-01-13T00:20:32;8.90;99.90
20416;DHT22;10367;52.202;5.996;2023-01-13T00:23:01;8.80;99.90
20416;DHT22;10367;52.202;5.996;2023-01-13T00:25:30;8.80;99.90
20416;DHT22;10367;52.202;5.996;2023-01-13T00:28:00;8.90;99.90
20416;DHT22;10367;52.202;5.996;2023-01-13T00:30:29;8.80;99.90
20416;DHT22;10367;52.202;5.996;2023-01-13T00:32:57;8.80;99.90
20416;DHT22;10367;52.202;5.996;2023-01-13T00:35:26;8.80;99.90
20416;DHT22;10367;52.202;5.996;2023-01-13T00:37:56;8.70;99.90
20416;DHT22;10367;52.202;5.996;2023-01-13T00:40:25;8.60;99.90
20416;DHT22;10367;52.202;5.996;2023-01-13T00:42:53;8.50;99.90
20416;DHT22;10367;52.202;5.996;2023-01-13T00:45:45;8.40;99.90
20416;DHT22;10367;52.202;5.996;2023-01-13T00:48:14;8.40;99.90
20416;DHT22;10367;52.202;5.996;2023-01-13T00:50:43;8.20;99.90
20416;DHT22;10367;52.202;5.996;2023-01-13T00:53:14;8.20;99.90
20416;DHT22;10367;52.202;5.996;2023-01-13T00:55:43;8.10;99.90
20416;DHT22;10367;52.202;5.996;2023-01-13T00:58:12;8.10;99.90
20416;DHT22;10367;52.202;5.996;2023-01-13T01:00:41;8.00;99.90
20416;DHT22;10367;52.202;5.996;2023-01-13T01:03:10;8.00;99.90
20416;DHT22;10367;52.202;5.996;2023-01-13T01:05:39;8.00;99.90
20416;DHT22;10367;52.202;5.996;2023-01-13T01:08:07;8.10;99.90
20416;DHT22;10367;52.202;5.996;2023-01-13T01:10:37;8.20;99.90
20416;DHT22;10367;52.202;5.996;2023-01-13T01:13:06;8.20;99.90
20416;DHT22;10367;52.202;5.996;2023-01-13T01:15:39;8.20;99.90
20416;DHT22;10367;52.202;5.996;2023-01-13T01:18:08;8.20;99.90
20416;DHT22;10367;52.202;5.996;2023-01-13T01:20:37;8.20;99.90
20416;DHT22;10367;52.202;5.996;2023-01-13T01:23:05;8.10;99.90
20416;DHT22;10367;52.202;5.996;2023-01-13T01:25:34;8.10;99.90
20416;DHT22;10367;52.202;5.996;2023-01-13T01:28:06;8.00;99.90
20416;DHT22;10367;52.202;5.996;2023-01-13T01:30:37;8.00;99.90
20416;DHT22;10367;52.202;5.996;2023-01-13T01:33:06;8.10;99.90
20416;DHT22;10367;52.202;5.996;2023-01-13T01:35:38;8.10;99.90
20416;DHT22;10367;52.202;5.996;2023-01-13T01:38:06;8.10;99.90
20416;DHT22;10367;52.202;5.996;2023-01-13T01:40:35;8.10;99.90
20416;DHT22;10367;52.202;5.996;2023-01-13T01:43:12;8.20;99.90
20416;DHT22;10367;52.202;5.996;2023-01-13T01:46:07;8.10;99.90
20416;DHT22;10367;52.202;5.996;2023-01-13T01:48:39;8.00;99.90
20416;DHT22;10367;52.202;5.996;2023-01-13T01:51:12;8.00;99.90
20416;DHT22;10367;52.202;5.996;2023-01-13T01:53:41;8.00;99.90
20416;DHT22;10367;52.202;5.996;2023-01-13T01:56:10;8.00;99.90
20416;DHT22;10367;52.202;5.996;2023-01-13T01:58:43;7.90;99.90
20416;DHT22;10367;52.202;5.996;2023-01-13T02:01:14;7.80;99.90
20416;DHT22;10367;52.202;5.996;2023-01-13T02:03:46;7.80;99.90
20416;DHT22;10367;52.202;5.996;2023-01-13T02:06:19;7.70;99.90
20416;DHT22;10367;52.202;5.996;2023-01-13T02:08:48;7.80;99.90
20416;DHT22;10367;52.202;5.996;2023-01-13T02:11:28;7.80;99.90
20416;DHT22;10367;52.202;5.996;2023-01-13T02:14:16;7.80;99.90
20416;DHT22;10367;52.202;5.996;2023-01-13T02:16:52;7.80;99.90
20416;DHT22;10367;52.202;5.996;2023-01-13T02:22:44;7.70;99.90
20416;DHT22;10367;52.202;5.996;2023-01-13T02:25:47;7.70;99.90
20416;DHT22;10367;52.202;5.996;2023-01-13T02:28:45;7.70;99.90
20416;DHT22;10367;52.202;5.996;2023-01-13T02:31:36;7.70;99.90
20416;DHT22;10367;52.202;5.996;2023-01-13T02:34:13;7.70;99.90
20416;DHT22;10367;52.202;5.996;2023-01-13T02:36:50;7.70;99.90
20416;DHT22;10367;52.202;5.996;2023-01-13T02:39:24;7.70;99.90
20416;DHT22;10367;52.202;5.996;2023-01-13T02:41:56;7.70;99.90
20416;DHT22;10367;52.202;5.996;2023-01-13T02:44:50;7.60;99.90
20416;DHT22;10367;52.202;5.996;2023-01-13T02:47:25;7.60;99.90
20416;DHT22;10367;52.202;5.996;2023-01-13T02:49:56;7.60;99.90
20416;DHT22;10367;52.202;5.996;2023-01-13T02:52:30;7.60;99.90
20416;DHT22;10367;52.202;5.996;2023-01-13T02:55:05;7.60;99.90
20416;DHT22;10367;52.202;5.996;2023-01-13T02:57:37;7.70;99.90
20416;DHT22;10367;52.202;5.996;2023-01-13T03:00:08;7.70;99.90
20416;DHT22;10367;52.202;5.996;2023-01-13T03:02:40;7.80;99.90
20416;DHT22;10367;52.202;5.996;2023-01-13T03:05:11;7.80;99.90
20416;DHT22;10367;52.202;5.996;2023-01-13T03:07:51;7.80;99.90
20416;DHT22;10367;52.202;5.996;2023-01-13T03:10:32;7.80;99.90
20416;DHT22;10367;52.202;5.996;2023-01-13T03:13:13;7.80;99.90
20416;DHT22;10367;52.202;5.996;2023-01-13T03:15:52;7.90;99.90
20416;DHT22;10367;52.202;5.996;2023-01-13T03:18:32;7.80;99.90
20416;DHT22;10367;52.202;5.996;2023-01-13T03:21:08;7.80;99.90
20416;DHT22;10367;52.202;5.996;2023-01-13T03:23:48;7.90;99.90
20416;DHT22;10367;52.202;5.996;2023-01-13T03:26:24;7.90;99.90
20416;DHT22;10367;52.202;5.996;2023-01-13T03:28:58;7.80;99.90
20416;DHT22;10367;52.202;5.996;2023-01-13T03:31:30;7.80;99.90
20416;DHT22;10367;52.202;5.996;2023-01-13T03:34:05;7.80;99.90
20416;DHT22;10367;52.202;5.996;2023-01-13T03:36:38;7.90;99.90
20416;DHT22;10367;52.202;5.996;2023-01-13T03:39:10;7.80;99.90
20416;DHT22;10367;52.202;5.996;2023-01-13T03:41:43;7.90;99.90
20416;DHT22;10367;52.202;5.996;2023-01-13T03:44:16;8.00;99.90
20416;DHT22;10367;52.202;5.996;2023-01-13T03:46:55;8.10;99.90
20416;DHT22;10367;52.202;5.996;2023-01-13T03:49:32;8.20;99.90
20416;DHT22;10367;52.202;5.996;2023-01-13T03:52:06;8.30;99.90
20416;DHT22;10367;52.202;5.996;2023-01-13T03:54:50;8.30;99.90
20416;DHT22;10367;52.202;5.996;2023-01-13T03:57:25;8.20;99.90
20416;DHT22;10367;52.202;5.996;2023-01-13T03:59:58;8.10;99.90
20416;DHT22;10367;52.202;5.996;2023-01-13T04:02:39;8.00;99.90
20416;DHT22;10367;52.202;5.996;2023-01-13T04:05:12;8.00;99.90
20416;DHT22;10367;52.202;5.996;2023-01-13T04:07:47;8.00;99.90
20416;DHT22;10367;52.202;5.996;2023-01-13T04:10:19;8.00;99.90
20416;DHT22;10367;52.202;5.996;2023-01-13T04:12:52;8.00;99.90
20416;DHT22;10367;52.202;5.996;2023-01-13T04:15:32;8.00;99.90
20416;DHT22;10367;52.202;5.996;2023-01-13T04:18:08;8.00;99.90
20416;DHT22;10367;52.202;5.996;2023-01-13T04:20:40;8.00;99.90
20416;DHT22;10367;52.202;5.996;2023-01-13T04:23:09;7.90;99.90
20416;DHT22;10367;52.202;5.996;2023-01-13T04:25:40;7.80;99.90
20416;DHT22;10367;52.202;5.996;2023-01-13T04:28:09;7.70;99.90
20416;DHT22;10367;52.202;5.996;2023-01-13T04:30:38;7.70;99.90
20416;DHT22;10367;52.202;5.996;2023-01-13T04:33:08;7.70;99.90
20416;DHT22;10367;52.202;5.996;2023-01-13T04:35:37;7.70;99.90
20416;DHT22;10367;52.202;5.996;2023-01-13T04:38:09;7.70;99.90
20416;DHT22;10367;52.202;5.996;2023-01-13T04:40:38;7.70;99.90
20416;DHT22;10367;52.202;5.996;2023-01-13T04:43:07;7.70;99.90
20416;DHT22;10367;52.202;5.996;2023-01-13T04:45:36;7.70;99.90
20416;DHT22;10367;52.202;5.996;2023-01-13T04:48:05;7.60;99.90
20416;DHT22;10367;52.202;5.996;2023-01-13T04:50:34;7.50;99.90
20416;DHT22;10367;52.202;5.996;2023-01-13T04:53:03;7.50;99.90
20416;DHT22;10367;52.202;5.996;2023-01-13T04:55:33;7.60;99.90
20416;DHT22;10367;52.202;5.996;2023-01-13T04:58:03;7.60;99.90
20416;DHT22;10367;52.202;5.996;2023-01-13T05:00:33;7.50;99.90
20416;DHT22;10367;52.202;5.996;2023-01-13T05:03:02;7.40;99.90
20416;DHT22;10367;52.202;5.996;2023-01-13T05:05:31;7.50;99.90
20416;DHT22;10367;52.202;5.996;2023-01-13T05:08:00;7.60;99.90
20416;DHT22;10367;52.202;5.996;2023-01-13T05:10:29;7.60;99.90
20416;DHT22;10367;52.202;5.996;2023-01-13T05:12:59;7.50;99.90
20416;DHT22;10367;52.202;5.996;2023-01-13T05:15:45;7.50;99.90
20416;DHT22;10367;52.202;5.996;2023-01-13T05:18:33;7.40;99.90
20416;DHT22;10367;52.202;5.996;2023-01-13T05:21:02;7.30;99.90
20416;DHT22;10367;52.202;5.996;2023-01-13T05:23:30;7.30;99.90
20416;DHT22;10367;52.202;5.996;2023-01-13T05:26:17;7.30;99.90
20416;DHT22;10367;52.202;5.996;2023-01-13T05:28:46;7.30;99.90
20416;DHT22;10367;52.202;5.996;2023-01-13T05:31:15;7.40;99.90
20416;DHT22;10367;52.202;5.996;2023-01-13T05:33:44;7.40;99.90
20416;DHT22;10367;52.202;5.996;2023-01-13T05:36:12;7.40;99.90
20416;DHT22;10367;52.202;5.996;2023-01-13T05:38:41;7.40;99.90
20416;DHT22;10367;52.202;5.996;2023-01-13T05:41:09;7.40;99.90
20416;DHT22;10367;52.202;5.996;2023-01-13T05:43:57;7.30;99.90
20416;DHT22;10367;52.202;5.996;2023-01-13T05:46:26;7.30;99.90
20416;DHT22;10367;52.202;5.996;2023-01-13T05:48:54;7.40;99.90
20416;DHT22;10367;52.202;5.996;2023-01-13T05:51:23;7.40;99.90
20416;DHT22;10367;52.202;5.996;2023-01-13T05:53:52;7.40;99.90
20416;DHT22;10367;52.202;5.996;2023-01-13T05:56:21;7.40;99.90
20416;DHT22;10367;52.202;5.996;2023-01-13T05:58:50;7.30;99.90
20416;DHT22;10367;52.202;5.996;2023-01-13T06:01:20;7.40;99.90
20416;DHT22;10367;52.202;5.996;2023-01-13T06:03:48;7.50;99.90
20416;DHT22;10367;52.202;5.996;2023-01-13T06:06:17;7.60;99.90
20416;DHT22;10367;52.202;5.996;2023-01-13T06:08:46;7.60;99.90
20416;DHT22;10367;52.202;5.996;2023-01-13T06:11:14;7.70;99.90
20416;DHT22;10367;52.202;5.996;2023-01-13T06:13:43;7.70;99.90
20416;DHT22;10367;52.202;5.996;2023-01-13T06:16:12;7.70;99.90
20416;DHT22;10367;52.202;5.996;2023-01-13T06:18:42;7.60;99.90
20416;DHT22;10367;52.202;5.996;2023-01-13T06:21:10;7.50;99.90
20416;DHT22;10367;52.202;5.996;2023-01-13T06:23:39;7.50;99.90
20416;DHT22;10367;52.202;5.996;2023-01-13T06:26:13;7.40;99.90
20416;DHT22;10367;52.202;5.996;2023-01-13T06:28:43;7.40;99.90
20416;DHT22;10367;52.202;5.996;2023-01-13T06:31:11;7.40;99.90
20416;DHT22;10367;52.202;5.996;2023-01-13T06:33:44;7.50;99.90
20416;DHT22;10367;52.202;5.996;2023-01-13T06:36:19;7.50;99.90
20416;DHT22;10367;52.202;5.996;2023-01-13T06:38:51;7.50;99.90
20416;DHT22;10367;52.202;5.996;2023-01-13T06:41:22;7.60;99.90
20416;DHT22;10367;52.202;5.996;2023-01-13T06:44:05;7.70;99.90
20416;DHT22;10367;52.202;5.996;2023-01-13T06:46:34;7.70;99.90
20416;DHT22;10367;52.202;5.996;2023-01-13T06:49:05;7.70;99.90
20416;DHT22;10367;52.202;5.996;2023-01-13T06:51:34;7.70;99.90
20416;DHT22;10367;52.202;5.996;2023-01-13T06:54:03;7.70;99.90
20416;DHT22;10367;52.202;5.996;2023-01-13T06:56:32;7.80;99.90
20416;DHT22;10367;52.202;5.996;2023-01-13T06:59:01;7.80;99.90
20416;DHT22;10367;52.202;5.996;2023-01-13T07:01:29;7.80;99.90
20416;DHT22;10367;52.202;5.996;2023-01-13T07:03:58;7.70;99.90
20416;DHT22;10367;52.202;5.996;2023-01-13T07:06:29;7.80;99.90
20416;DHT22;10367;52.202;5.996;2023-01-13T07:08:58;7.80;99.90
20416;DHT22;10367;52.202;5.996;2023-01-13T07:11:26;7.80;99.90
20416;DHT22;10367;52.202;5.996;2023-01-13T07:13:55;7.80;99.90
20416;DHT22;10367;52.202;5.996;2023-01-13T07:16:43;7.80;99.90
20416;DHT22;10367;52.202;5.996;2023-01-13T07:19:14;7.80;99.90
20416;DHT22;10367;52.202;5.996;2023-01-13T07:21:51;7.80;99.90
20416;DHT22;10367;52.202;5.996;2023-01-13T07:24:20;7.80;99.90
20416;DHT22;10367;52.202;5.996;2023-01-13T07:26:50;7.80;99.90
20416;DHT22;10367;52.202;5.996;2023-01-13T07:29:19;7.80;99.90
20416;DHT22;10367;52.202;5.996;2023-01-13T07:31:48;7.90;99.90
20416;DHT22;10367;52.202;5.996;2023-01-13T07:34:17;7.90;99.90
20416;DHT22;10367;52.202;5.996;2023-01-13T07:36:47;7.90;99.90
20416;DHT22;10367;52.202;5.996;2023-01-13T07:39:22;7.90;99.90
20416;DHT22;10367;52.202;5.996;2023-01-13T07:41:51;8.00;99.90
20416;DHT22;10367;52.202;5.996;2023-01-13T07:44:39;7.90;99.90
20416;DHT22;10367;52.202;5.996;2023-01-13T07:47:08;8.00;99.90
20416;DHT22;10367;52.202;5.996;2023-01-13T07:49:37;8.00;99.90
20416;DHT22;10367;52.202;5.996;2023-01-13T07:52:06;8.10;99.90
20416;DHT22;10367;52.202;5.996;2023-01-13T07:54:36;8.10;99.90
20416;DHT22;10367;52.202;5.996;2023-01-13T07:57:07;8.10;99.90
20416;DHT22;10367;52.202;5.996;2023-01-13T07:59:36;8.10;99.90
20416;DHT22;10367;52.202;5.996;2023-01-13T08:02:05;8.10;99.90
20416;DHT22;10367;52.202;5.996;2023-01-13T08:04:37;8.10;99.90
20416;DHT22;10367;52.202;5.996;2023-01-13T08:07:06;8.10;99.90
20416;DHT22;10367;52.202;5.996;2023-01-13T08:09:36;8.10;99.90
20416;DHT22;10367;52.202;5.996;2023-01-13T08:12:06;8.00;99.90
20416;DHT22;10367;52.202;5.996;2023-01-13T08:14:52;8.00;99.90
20416;DHT22;10367;52.202;5.996;2023-01-13T08:17:21;7.90;99.90
20416;DHT22;10367;52.202;5.996;2023-01-13T08:19:49;7.90;99.90
20416;DHT22;10367;52.202;5.996;2023-01-13T08:22:18;7.90;99.90
20416;DHT22;10367;52.202;5.996;2023-01-13T08:24:48;7.80;99.90
20416;DHT22;10367;52.202;5.996;2023-01-13T08:27:17;7.90;99.90
20416;DHT22;10367;52.202;5.996;2023-01-13T08:29:47;7.90;99.90
20416;DHT22;10367;52.202;5.996;2023-01-13T08:32:18;7.90;99.90
20416;DHT22;10367;52.202;5.996;2023-01-13T08:34:47;8.00;99.90
20416;DHT22;10367;52.202;5.996;2023-01-13T08:37:18;8.10;99.90
20416;DHT22;10367;52.202;5.996;2023-01-13T08:39:49;8.10;99.90
20416;DHT22;10367;52.202;5.996;2023-01-13T08:42:17;8.10;99.90
20416;DHT22;10367;52.202;5.996;2023-01-13T08:44:49;8.10;99.90
20416;DHT22;10367;52.202;5.996;2023-01-13T08:47:18;8.10;99.90
20416;DHT22;10367;52.202;5.996;2023-01-13T08:49:46;8.10;99.90
20416;DHT22;10367;52.202;5.996;2023-01-13T08:52:15;8.20;99.90
20416;DHT22;10367;52.202;5.996;2023-01-13T08:54:44;8.30;99.90
20416;DHT22;10367;52.202;5.996;2023-01-13T08:57:16;8.30;99.90
20416;DHT22;10367;52.202;5.996;2023-01-13T08:59:46;8.40;99.90
20416;DHT22;10367;52.202;5.996;2023-01-13T09:02:20;8.40;99.90
20416;DHT22;10367;52.202;5.996;2023-01-13T09:04:50;8.40;99.90
20416;DHT22;10367;52.202;5.996;2023-01-13T09:07:19;8.40;99.90
20416;DHT22;10367;52.202;5.996;2023-01-13T09:09:48;8.50;99.90
20416;DHT22;10367;52.202;5.996;2023-01-13T09:12:19;8.50;99.90
20416;DHT22;10367;52.202;5.996;2023-01-13T09:15:08;8.50;99.90
20416;DHT22;10367;52.202;5.996;2023-01-13T09:17:37;8.50;99.90
20416;DHT22;10367;52.202;5.996;2023-01-13T09:20:07;8.40;99.90
20416;DHT22;10367;52.202;5.996;2023-01-13T09:22:36;8.40;99.90
20416;DHT22;10367;52.202;5.996;2023-01-13T09:25:07;8.20;99.90
20416;DHT22;10367;52.202;5.996;2023-01-13T09:27:41;8.10;99.90
20416;DHT22;10367;52.202;5.996;2023-01-13T09:30:10;8.10;99.90
20416;DHT22;10367;52.202;5.996;2023-01-13T09:32:39;8.00;99.90
20416;DHT22;10367;52.202;5.996;2023-01-13T09:35:09;8.00;99.90
20416;DHT22;10367;52.202;5.996;2023-01-13T09:37:38;8.00;99.90
20416;DHT22;10367;52.202;5.996;2023-01-13T09:40:14;8.00;99.90
20416;DHT22;10367;52.202;5.996;2023-01-13T09:42:53;7.90;99.90
20416;DHT22;10367;52.202;5.996;2023-01-13T09:45:45;7.90;99.90
20416;DHT22;10367;52.202;5.996;2023-01-13T09:48:20;7.90;99.90
20416;DHT22;10367;52.202;5.996;2023-01-13T09:50:59;7.80;99.90
20416;DHT22;10367;52.202;5.996;2023-01-13T09:53:33;7.90;99.90
20416;DHT22;10367;52.202;5.996;2023-01-13T09:56:07;7.90;99.90
20416;DHT22;10367;52.202;5.996;2023-01-13T09:58:38;8.00;99.90
20416;DHT22;10367;52.202;5.996;2023-01-13T10:01:17;8.00;99.90
20416;DHT22;10367;52.202;5.996;2023-01-13T10:03:46;7.90;99.90
20416;DHT22;10367;52.202;5.996;2023-01-13T10:06:18;8.00;99.90
20416;DHT22;10367;52.202;5.996;2023-01-13T10:08:48;8.00;99.90
20416;DHT22;10367;52.202;5.996;2023-01-13T10:11:20;8.00;99.90
20416;DHT22;10367;52.202;5.996;2023-01-13T10:14:15;8.00;99.90
20416;DHT22;10367;52.202;5.996;2023-01-13T10:16:49;8.00;99.90
20416;DHT22;10367;52.202;5.996;2023-01-13T10:19:22;8.00;99.90
20416;DHT22;10367;52.202;5.996;2023-01-13T10:22:16;7.90;99.90
20416;DHT22;10367;52.202;5.996;2023-01-13T10:25:12;7.90;99.90
20416;DHT22;10367;52.202;5.996;2023-01-13T10:27:48;7.90;99.90
20416;DHT22;10367;52.202;5.996;2023-01-13T10:30:21;7.90;99.90
20416;DHT22;10367;52.202;5.996;2023-01-13T10:32:54;8.00;99.90
20416;DHT22;10367;52.202;5.996;2023-01-13T10:38:36;8.00;99.90
20416;DHT22;10367;52.202;5.996;2023-01-13T10:41:15;8.00;99.90
20416;DHT22;10367;52.202;5.996;2023-01-13T10:43:57;7.90;99.90
20416;DHT22;10367;52.202;5.996;2023-01-13T10:46:28;7.80;99.90
20416;DHT22;10367;52.202;5.996;2023-01-13T10:48:59;7.70;99.90
20416;DHT22;10367;52.202;5.996;2023-01-13T10:51:28;7.70;99.90
20416;DHT22;10367;52.202;5.996;2023-01-13T10:54:00;7.70;99.90
20416;DHT22;10367;52.202;5.996;2023-01-13T10:56:31;7.80;99.90
20416;DHT22;10367;52.202;5.996;2023-01-13T10:59:14;7.80;99.90
20416;DHT22;10367;52.202;5.996;2023-01-13T11:01:57;7.80;99.90
20416;DHT22;10367;52.202;5.996;2023-01-13T11:04:29;7.90;99.90
20416;DHT22;10367;52.202;5.996;2023-01-13T11:06:58;7.90;99.90
20416;DHT22;10367;52.202;5.996;2023-01-13T11:09:29;8.10;99.90
20416;DHT22;10367;52.202;5.996;2023-01-13T11:11:58;8.20;99.90
20416;DHT22;10367;52.202;5.996;2023-01-13T11:14:35;8.30;99.90
20416;DHT22;10367;52.202;5.996;2023-01-13T11:17:22;8.30;99.90
20416;DHT22;10367;52.202;5.996;2023-01-13T11:19:59;8.20;99.90
20416;DHT22;10367;52.202;5.996;2023-01-13T11:22:33;8.20;99.90
20416;DHT22;10367;52.202;5.996;2023-01-13T11:25:07;8.20;99.90
20416;DHT22;10367;52.202;5.996;2023-01-13T11:27:43;8.10;99.90
20416;DHT22;10367;52.202;5.996;2023-01-13T11:30:22;8.10;99.90
20416;DHT22;10367;52.202;5.996;2023-01-13T11:33:03;8.20;99.90
20416;DHT22;10367;52.202;5.996;2023-01-13T11:35:36;8.20;99.90
20416;DHT22;10367;52.202;5.996;2023-01-13T11:38:12;8.20;99.90
20416;DHT22;10367;52.202;5.996;2023-01-13T11:40:45;8.20;99.90
20416;DHT22;10367;52.202;5.996;2023-01-13T11:43:19;8.30;99.90
20416;DHT22;10367;52.202;5.996;2023-01-13T11:45:54;8.30;99.90
20416;DHT22;10367;52.202;5.996;2023-01-13T11:48:28;8.30;99.90
20416;DHT22;10367;52.202;5.996;2023-01-13T11:51:01;8.40;99.90
20416;DHT22;10367;52.202;5.996;2023-01-13T11:53:53;8.40;99.90
20416;DHT22;10367;52.202;5.996;2023-01-13T11:56:38;8.50;99.90
20416;DHT22;10367;52.202;5.996;2023-01-13T11:59:44;8.50;99.90
20416;DHT22;10367;52.202;5.996;2023-01-13T12:02:24;8.50;99.90
20416;DHT22;10367;52.202;5.996;2023-01-13T12:05:07;8.50;99.90
20416;DHT22;10367;52.202;5.996;2023-01-13T12:07:46;8.50;99.90
20416;DHT22;10367;52.202;5.996;2023-01-13T12:10:30;8.50;99.90
20416;DHT22;10367;52.202;5.996;2023-01-13T12:13:12;8.50;99.90
20416;DHT22;10367;52.202;5.996;2023-01-13T12:15:58;8.50;99.90
20416;DHT22;10367;52.202;5.996;2023-01-13T12:18:49;8.50;99.90
20416;DHT22;10367;52.202;5.996;2023-01-13T12:21:25;8.50;99.90
20416;DHT22;10367;52.202;5.996;2023-01-13T12:24:02;8.50;99.90
20416;DHT22;10367;52.202;5.996;2023-01-13T12:26:36;8.50;99.90
20416;DHT22;10367;52.202;5.996;2023-01-13T12:29:10;8.60;99.90
20416;DHT22;10367;52.202;5.996;2023-01-13T12:31:40;8.60;99.90
20416;DHT22;10367;52.202;5.996;2023-01-13T12:34:27;8.60;99.90
20416;DHT22;10367;52.202;5.996;2023-01-13T12:37:04;8.60;99.90
20416;DHT22;10367;52.202;5.996;2023-01-13T12:39:42;8.60;99.90
20416;DHT22;10367;52.202;5.996;2023-01-13T12:42:16;8.60;99.90
20416;DHT22;10367;52.202;5.996;2023-01-13T12:45:25;8.60;99.90
20416;DHT22;10367;52.202;5.996;2023-01-13T12:47:56;8.80;99.90
20416;DHT22;10367;52.202;5.996;2023-01-13T12:50:41;8.80;99.90
20416;DHT22;10367;52.202;5.996;2023-01-13T12:53:34;8.80;99.90
20416;DHT22;10367;52.202;5.996;2023-01-13T12:56:38;8.80;99.90
20416;DHT22;10367;52.202;5.996;2023-01-13T13:02:27;8.90;99.90
20416;DHT22;10367;52.202;5.996;2023-01-13T13:04:58;8.80;99.90
20416;DHT22;10367;52.202;5.996;2023-01-13T13:07:38;8.90;99.90
20416;DHT22;10367;52.202;5.996;2023-01-13T13:10:17;8.90;99.90
20416;DHT22;10367;52.202;5.996;2023-01-13T13:12:53;8.90;99.90
20416;DHT22;10367;52.202;5.996;2023-01-13T13:15:40;8.90;99.90
20416;DHT22;10367;52.202;5.996;2023-01-13T13:18:24;9.00;99.90
20416;DHT22;10367;52.202;5.996;2023-01-13T13:21:03;9.00;99.90
20416;DHT22;10367;52.202;5.996;2023-01-13T13:26:39;9.00;99.90
20416;DHT22;10367;52.202;5.996;2023-01-13T13:29:33;9.10;99.90
20416;DHT22;10367;52.202;5.996;2023-01-13T13:32:35;9.10;99.90
20416;DHT22;10367;52.202;5.996;2023-01-13T13:35:27;9.10;99.90
20416;DHT22;10367;52.202;5.996;2023-01-13T13:38:11;9.10;99.90
20416;DHT22;10367;52.202;5.996;2023-01-13T13:41:08;9.20;99.90
20416;DHT22;10367;52.202;5.996;2023-01-13T13:43:59;9.20;99.90
20416;DHT22;10367;52.202;5.996;2023-01-13T13:46:48;9.30;99.90
20416;DHT22;10367;52.202;5.996;2023-01-13T13:49:18;9.30;99.90
20416;DHT22;10367;52.202;5.996;2023-01-13T13:51:56;9.30;99.90
20416;DHT22;10367;52.202;5.996;2023-01-13T13:54:26;9.20;99.90
20416;DHT22;10367;52.202;5.996;2023-01-13T13:56:55;9.30;99.90
20416;DHT22;10367;52.202;5.996;2023-01-13T13:59:27;9.30;99.90
20416;DHT22;10367;52.202;5.996;2023-01-13T14:01:59;9.30;99.90
20416;DHT22;10367;52.202;5.996;2023-01-13T14:04:32;9.30;99.90
20416;DHT22;10367;52.202;5.996;2023-01-13T14:07:12;9.40;99.90
20416;DHT22;10367;52.202;5.996;2023-01-13T14:09:44;9.50;99.90
20416;DHT22;10367;52.202;5.996;2023-01-13T14:12:16;9.50;99.90
20416;DHT22;10367;52.202;5.996;2023-01-13T14:14:48;9.50;99.90
20416;DHT22;10367;52.202;5.996;2023-01-13T14:17:23;9.50;99.90
20416;DHT22;10367;52.202;5.996;2023-01-13T14:19:55;9.50;99.90
20416;DHT22;10367;52.202;5.996;2023-01-13T14:22:26;9.50;99.90
20416;DHT22;10367;52.202;5.996;2023-01-13T14:24:55;9.40;99.90
20416;DHT22;10367;52.202;5.996;2023-01-13T14:27:25;9.40;99.90
20416;DHT22;10367;52.202;5.996;2023-01-13T14:29:58;9.50;99.90
20416;DHT22;10367;52.202;5.996;2023-01-13T14:32:31;9.40;99.90
20416;DHT22;10367;52.202;5.996;2023-01-13T14:35:01;9.30;99.90
20416;DHT22;10367;52.202;5.996;2023-01-13T14:37:37;9.30;99.90
20416;DHT22;10367;52.202;5.996;2023-01-13T14:42:56;9.30;99.90
20416;DHT22;10367;52.202;5.996;2023-01-13T14:45:26;9.30;99.90
20416;DHT22;10367;52.202;5.996;2023-01-13T14:48:07;9.30;99.90
20416;DHT22;10367;52.202;5.996;2023-01-13T14:50:36;9.20;99.90
20416;DHT22;10367;52.202;5.996;2023-01-13T14:53:26;9.30;99.90
20416;DHT22;10367;52.202;5.996;2023-01-13T14:55:56;9.20;99.90
20416;DHT22;10367;52.202;5.996;2023-01-13T14:58:27;9.20;99.90
20416;DHT22;10367;52.202;5.996;2023-01-13T15:04:16;9.20;99.90
20416;DHT22;10367;52.202;5.996;2023-01-13T15:06:51;9.10;99.90
20416;DHT22;10367;52.202;5.996;2023-01-13T15:09:24;9.10;99.90
20416;DHT22;10367;52.202;5.996;2023-01-13T15:11:53;9.10;99.90
20416;DHT22;10367;52.202;5.996;2023-01-13T15:14:28;9.10;99.90
20416;DHT22;10367;52.202;5.996;2023-01-13T15:17:00;9.00;99.90
20416;DHT22;10367;52.202;5.996;2023-01-13T15:19:30;9.00;99.90
20416;DHT22;10367;52.202;5.996;2023-01-13T15:21:59;8.80;99.90
20416;DHT22;10367;52.202;5.996;2023-01-13T15:24:29;8.80;99.90
20416;DHT22;10367;52.202;5.996;2023-01-13T15:26:58;8.80;99.90
20416;DHT22;10367;52.202;5.996;2023-01-13T15:29:27;8.80;99.90
20416;DHT22;10367;52.202;5.996;2023-01-13T15:31:56;8.70;99.90
20416;DHT22;10367;52.202;5.996;2023-01-13T15:34:24;8.70;99.90
20416;DHT22;10367;52.202;5.996;2023-01-13T15:36:55;8.80;99.90
20416;DHT22;10367;52.202;5.996;2023-01-13T15:39:23;8.80;99.90
20416;DHT22;10367;52.202;5.996;2023-01-13T15:41:52;8.70;99.90
20416;DHT22;10367;52.202;5.996;2023-01-13T15:44:38;8.80;99.90
20416;DHT22;10367;52.202;5.996;2023-01-13T15:47:26;8.90;99.90
20416;DHT22;10367;52.202;5.996;2023-01-13T15:49:55;8.90;99.90
20416;DHT22;10367;52.202;5.996;2023-01-13T15:52:26;8.90;99.90
20416;DHT22;10367;52.202;5.996;2023-01-13T15:54:55;8.90;99.90
20416;DHT22;10367;52.202;5.996;2023-01-13T15:57:25;8.90;99.90
20416;DHT22;10367;52.202;5.996;2023-01-13T15:59:56;8.90;99.90
20416;DHT22;10367;52.202;5.996;2023-01-13T16:02:25;8.90;99.90
20416;DHT22;10367;52.202;5.996;2023-01-13T16:04:56;8.80;99.90
20416;DHT22;10367;52.202;5.996;2023-01-13T16:07:26;8.90;99.90
20416;DHT22;10367;52.202;5.996;2023-01-13T16:09:55;9.00;99.90
20416;DHT22;10367;52.202;5.996;2023-01-13T16:12:23;9.00;99.90
20416;DHT22;10367;52.202;5.996;2023-01-13T16:14:52;8.90;99.90
20416;DHT22;10367;52.202;5.996;2023-01-13T16:17:23;8.80;99.90
20416;DHT22;10367;52.202;5.996;2023-01-13T16:19:55;8.70;99.90
20416;DHT22;10367;52.202;5.996;2023-01-13T16:22:25;8.70;99.90
20416;DHT22;10367;52.202;5.996;2023-01-13T16:24:54;8.70;99.90
20416;DHT22;10367;52.202;5.996;2023-01-13T16:27:24;8.70;99.90
20416;DHT22;10367;52.202;5.996;2023-01-13T16:29:53;8.70;99.90
20416;DHT22;10367;52.202;5.996;2023-01-13T16:32:21;8.60;99.90
20416;DHT22;10367;52.202;5.996;2023-01-13T16:34:50;8.80;99.90
20416;DHT22;10367;52.202;5.996;2023-01-13T16:37:20;8.80;99.90
20416;DHT22;10367;52.202;5.996;2023-01-13T16:39:53;8.70;99.90
20416;DHT22;10367;52.202;5.996;2023-01-13T16:42:22;8.70;99.90
20416;DHT22;10367;52.202;5.996;2023-01-13T16:44:51;8.60;99.90